createdAt,value
2023-02-22T00:02:13.972Z,19.67
2023-02-22T00:04:40.775Z,19.30
2023-02-22T00:07:07.631Z,19.85
2023-02-22T00:09:34.407Z,20.52
2023-02-22T00:12:01.307Z,20.15
2023-02-22T00:14:28.537Z,20.38
2023-02-22T00:16:59.589Z,19.80
2023-02-22T00:19:28.107Z,19.52
2023-02-22T00:21:54.817Z,18.77
2023-02-22T00:24:24.555Z,20.45
2023-02-22T00:26:52.681Z,19.85
2023-02-22T00:29:19.331Z,20.83
2023-02-22T00:31:46.059Z,19.63
2023-02-22T00:34:14.568Z,19.63
2023-02-22T00:36:49.235Z,19.20
2023-02-22T00:39:16.435Z,17.65
2023-02-22T00:41:43.438Z,18.50
2023-02-22T00:44:10.416Z,16.85
2023-02-22T00:46:37.197Z,18.58
2023-02-22T00:49:05.249Z,17.67
2023-02-22T00:51:31.974Z,16.30
2023-02-22T00:53:58.679Z,16.08
2023-02-22T00:56:25.602Z,16.38
2023-02-22T00:58:52.273Z,16.17
2023-02-22T01:01:19.178Z,15.68
2023-02-22T01:03:46.150Z,15.02
2023-02-22T01:06:12.959Z,15.68
2023-02-22T01:08:44.984Z,13.65
2023-02-22T01:11:15.614Z,14.43
2023-02-22T01:13:45.283Z,14.45
2023-02-22T01:16:12.406Z,13.23
2023-02-22T01:18:39.460Z,12.73
2023-02-22T01:21:06.642Z,13.18
2023-02-22T01:23:33.342Z,12.90
2023-02-22T01:26:01.076Z,13.07
2023-02-22T01:28:29.977Z,12.52
2023-02-22T01:30:56.955Z,11.93
2023-02-22T01:33:24.067Z,12.07
2023-02-22T01:35:51.381Z,11.68
2023-02-22T01:38:18.211Z,12.43
2023-02-22T01:40:49.046Z,12.25
2023-02-22T01:43:15.763Z,11.27
2023-02-22T01:45:47.203Z,10.48
2023-02-22T01:48:36.591Z,10.88
2023-02-22T01:51:17.233Z,10.90
2023-02-22T01:54:04.421Z,10.85
2023-02-22T01:56:36.642Z,10.02
2023-02-22T01:59:08.604Z,11.02
2023-02-22T02:01:42.995Z,10.30
2023-02-22T02:04:15.515Z,9.93
2023-02-22T02:06:43.063Z,10.32
2023-02-22T02:09:30.961Z,9.70
2023-02-22T02:12:05.064Z,10.50
2023-02-22T02:17:01.535Z,10.05
2023-02-22T02:19:41.901Z,9.85
2023-02-22T02:22:25.467Z,9.77
2023-02-22T02:25:11.394Z,9.93
2023-02-22T02:28:15.412Z,10.13
2023-02-22T02:30:53.944Z,10.73
2023-02-22T02:34:18.827Z,13.02
2023-02-22T02:37:12.287Z,14.25
2023-02-22T02:40:01.005Z,14.68
2023-02-22T02:42:36.381Z,15.85
2023-02-22T02:45:18.699Z,15.85
2023-02-22T02:47:54.374Z,14.45
2023-02-22T02:50:27.261Z,15.73
2023-02-22T02:52:57.373Z,15.55
2023-02-22T02:55:24.700Z,13.98
2023-02-22T02:57:51.459Z,13.43
2023-02-22T03:00:24.554Z,12.48
2023-02-22T03:03:06.650Z,12.55
2023-02-22T03:06:01.885Z,11.07
2023-02-22T03:08:37.702Z,11.35
2023-02-22T03:11:15.742Z,11.93
2023-02-22T03:13:55.763Z,10.88
2023-02-22T03:16:32.551Z,11.13
2023-02-22T03:19:05.160Z,10.93
2023-02-22T03:21:40.682Z,10.43
2023-02-22T03:24:19.680Z,10.50
2023-02-22T03:27:37.244Z,9.35
2023-02-22T03:30:09.758Z,10.82
2023-02-22T03:32:41.272Z,8.77
2023-02-22T03:35:18.792Z,8.95
2023-02-22T03:37:51.365Z,9.98
2023-02-22T03:40:26.496Z,9.07
2023-02-22T03:43:01.489Z,10.13
2023-02-22T03:45:31.421Z,9.75
2023-02-22T03:48:06.864Z,9.50
2023-02-22T03:50:37.102Z,9.25
2023-02-22T03:53:04.918Z,8.88
2023-02-22T03:55:31.943Z,8.13
2023-02-22T03:58:01.843Z,8.75
2023-02-22T04:00:31.158Z,8.32
2023-02-22T04:02:58.287Z,9.05
2023-02-22T04:05:25.962Z,8.30
2023-02-22T04:07:57.379Z,9.00
2023-02-22T04:10:24.733Z,8.88
2023-02-22T04:12:51.748Z,9.15
2023-02-22T04:15:22.132Z,8.60
2023-02-22T04:17:52.257Z,9.23
2023-02-22T04:20:19.988Z,8.85
2023-02-22T04:22:47.486Z,8.65
2023-02-22T04:25:14.923Z,9.00
2023-02-22T04:27:41.750Z,8.48
2023-02-22T04:30:09.353Z,9.00
2023-02-22T04:32:36.071Z,9.63
2023-02-22T04:35:03.720Z,9.63
2023-02-22T04:37:30.498Z,8.73
2023-02-22T04:39:58.532Z,9.73
2023-02-22T04:42:25.201Z,9.68
2023-02-22T04:44:51.923Z,10.55
2023-02-22T04:47:18.883Z,11.27
2023-02-22T04:49:45.808Z,10.65
2023-02-22T04:52:12.619Z,11.50
2023-02-22T04:54:39.384Z,12.15
2023-02-22T04:57:06.222Z,9.68
2023-02-22T04:59:33.391Z,11.02
2023-02-22T05:02:00.961Z,10.82
2023-02-22T05:04:27.915Z,11.13
2023-02-22T05:06:55.114Z,9.80
2023-02-22T05:09:22.350Z,9.80
2023-02-22T05:11:49.474Z,10.68
2023-02-22T05:14:16.281Z,10.52
2023-02-22T05:16:43.194Z,10.40
2023-02-22T05:19:09.916Z,10.35
2023-02-22T05:21:36.589Z,9.82
2023-02-22T05:24:03.516Z,9.85
2023-02-22T05:26:31.249Z,10.07
2023-02-22T05:28:58.038Z,8.38
2023-02-22T05:31:24.792Z,9.85
2023-02-22T05:33:51.603Z,9.80
2023-02-22T05:36:18.355Z,10.13
2023-02-22T05:38:45.116Z,9.95
2023-02-22T05:41:12.787Z,9.23
2023-02-22T05:43:40.697Z,9.80
2023-02-22T05:46:07.809Z,10.73
2023-02-22T05:48:36.599Z,10.63
2023-02-22T05:51:04.099Z,11.05
2023-02-22T05:53:30.890Z,11.15
2023-02-22T05:55:57.822Z,11.27
2023-02-22T05:58:24.570Z,11.75
2023-02-22T06:00:51.405Z,12.13
2023-02-22T06:03:18.449Z,12.30
2023-02-22T06:05:45.437Z,12.52
2023-02-22T06:08:12.179Z,12.80
2023-02-22T06:10:38.915Z,13.35
2023-02-22T06:13:06.097Z,12.27
2023-02-22T06:15:35.206Z,14.07
2023-02-22T06:18:03.475Z,13.38
2023-02-22T06:20:30.962Z,13.25
2023-02-22T06:22:59.073Z,12.93
2023-02-22T06:25:31.446Z,12.27
2023-02-22T06:27:59.341Z,12.02
2023-02-22T06:30:27.594Z,12.52
2023-02-22T06:32:55.433Z,11.95
2023-02-22T06:35:23.170Z,12.52
2023-02-22T06:37:50.902Z,12.32
2023-02-22T06:40:17.683Z,14.05
2023-02-22T06:42:44.549Z,13.93
2023-02-22T06:45:14.410Z,13.48
2023-02-22T06:47:41.418Z,13.63
2023-02-22T06:50:26.202Z,12.80
2023-02-22T06:52:53.244Z,13.70
2023-02-22T06:55:31.886Z,13.35
2023-02-22T06:57:59.386Z,14.18
2023-02-22T07:00:27.587Z,12.13
2023-02-22T07:02:55.062Z,12.80
2023-02-22T07:05:24.713Z,11.38
2023-02-22T07:07:53.940Z,11.48
2023-02-22T07:10:27.444Z,11.23
2023-02-22T07:12:54.521Z,8.88
2023-02-22T07:15:23.751Z,10.13
2023-02-22T07:17:51.458Z,10.25
2023-02-22T07:20:20.696Z,10.50
2023-02-22T07:22:48.584Z,9.90
2023-02-22T07:25:15.283Z,9.70
2023-02-22T07:27:42.962Z,10.48
2023-02-22T07:30:30.785Z,10.55
2023-02-22T07:33:00.036Z,11.18
2023-02-22T07:35:29.593Z,10.65
2023-02-22T07:37:57.008Z,10.35
2023-02-22T07:40:26.319Z,11.50
2023-02-22T07:42:58.360Z,9.48
2023-02-22T07:45:27.496Z,10.55
2023-02-22T07:48:00.582Z,10.50
2023-02-22T07:50:32.399Z,9.88
2023-02-22T07:53:01.565Z,10.45
2023-02-22T07:55:30.193Z,9.70
2023-02-22T07:58:02.028Z,9.05
2023-02-22T08:00:33.588Z,10.45
2023-02-22T08:03:03.448Z,10.65
2023-02-22T08:05:31.416Z,9.98
2023-02-22T08:07:59.502Z,10.65
2023-02-22T08:10:27.928Z,11.57
2023-02-22T08:12:56.026Z,11.38
2023-02-22T08:15:25.647Z,11.30
2023-02-22T08:17:53.484Z,11.65
2023-02-22T08:20:20.361Z,12.07
2023-02-22T08:22:47.848Z,11.93
2023-02-22T08:25:16.978Z,11.38
2023-02-22T08:27:44.009Z,11.07
2023-02-22T08:30:19.046Z,13.98
2023-02-22T08:32:47.080Z,12.90
2023-02-22T08:35:15.742Z,12.30
2023-02-22T08:37:53.937Z,13.45
2023-02-22T08:40:25.945Z,12.40
2023-02-22T08:42:52.686Z,12.65
2023-02-22T08:45:19.860Z,12.95
2023-02-22T08:47:46.963Z,11.38
2023-02-22T08:50:19.907Z,11.60
2023-02-22T08:52:46.594Z,11.70
2023-02-22T08:55:13.394Z,12.25
2023-02-22T08:57:40.069Z,11.80
2023-02-22T09:00:07.681Z,12.73
2023-02-22T09:02:34.398Z,11.10
2023-02-22T09:05:01.082Z,12.27
2023-02-22T09:07:27.823Z,12.50
2023-02-22T09:09:54.597Z,12.02
2023-02-22T09:12:21.281Z,12.02
2023-02-22T09:14:48.008Z,11.88
2023-02-22T09:17:14.738Z,11.65
2023-02-22T09:19:42.820Z,11.32
2023-02-22T09:22:09.538Z,11.52
2023-02-22T09:24:36.211Z,11.23
2023-02-22T09:27:04.570Z,10.73
2023-02-22T09:29:31.376Z,11.32
2023-02-22T09:31:58.285Z,10.98
2023-02-22T09:34:29.653Z,11.90
2023-02-22T09:36:58.384Z,10.80
2023-02-22T09:39:25.349Z,10.43
2023-02-22T09:42:22.767Z,10.35
2023-02-22T09:45:03.496Z,10.48
2023-02-22T09:47:39.875Z,10.75
2023-02-22T09:50:29.980Z,9.52
2023-02-22T09:53:04.977Z,9.18
2023-02-22T09:55:34.607Z,9.02
2023-02-22T09:58:28.652Z,9.60
2023-02-22T10:01:05.154Z,7.60
2023-02-22T10:03:42.596Z,8.65
2023-02-22T10:06:15.608Z,9.32
2023-02-22T10:08:44.778Z,9.57
2023-02-22T10:11:22.688Z,9.98
2023-02-22T10:14:19.043Z,10.45
2023-02-22T10:17:15.607Z,9.95
2023-02-22T10:20:00.821Z,10.80
2023-02-22T10:22:41.519Z,12.07
2023-02-22T10:25:19.337Z,12.25
2023-02-22T10:27:54.995Z,11.23
2023-02-22T10:30:35.577Z,11.60
2023-02-22T10:33:20.137Z,11.13
2023-02-22T10:38:40.259Z,11.55
2023-02-22T10:41:09.925Z,12.10
2023-02-22T10:43:44.777Z,11.40
2023-02-22T10:46:16.466Z,11.52
2023-02-22T10:48:48.904Z,11.57
2023-02-22T10:51:17.255Z,11.95
2023-02-22T10:53:47.765Z,12.07
2023-02-22T10:56:22.379Z,13.00
2023-02-22T10:59:00.691Z,11.00
2023-02-22T11:01:36.248Z,11.90
2023-02-22T11:04:16.043Z,10.77
2023-02-22T11:06:49.788Z,11.38
2023-02-22T11:09:23.803Z,11.88
2023-02-22T11:12:09.560Z,12.02
2023-02-22T11:14:36.217Z,11.40
2023-02-22T11:17:09.428Z,10.85
2023-02-22T11:19:38.381Z,11.70
2023-02-22T11:22:15.204Z,12.07
2023-02-22T11:27:40.746Z,11.80
2023-02-22T11:30:31.791Z,11.43
2023-02-22T11:33:18.903Z,11.80
2023-02-22T11:35:52.868Z,11.68
2023-02-22T11:38:22.748Z,11.82
2023-02-22T11:41:15.020Z,10.93
2023-02-22T11:43:45.521Z,10.38
2023-02-22T11:46:27.610Z,10.45
2023-02-22T11:49:12.368Z,10.02
2023-02-22T11:51:39.105Z,10.45
2023-02-22T11:54:11.639Z,9.98
2023-02-22T11:56:48.870Z,10.68
2023-02-22T11:59:45.512Z,10.05
2023-02-22T12:02:24.303Z,10.30
2023-02-22T12:05:08.091Z,10.25
2023-02-22T12:07:57.185Z,10.35
2023-02-22T12:10:39.350Z,9.88
2023-02-22T12:13:33.857Z,9.43
2023-02-22T12:16:09.818Z,9.00
2023-02-22T12:18:42.759Z,10.13
2023-02-22T12:21:16.788Z,10.70
2023-02-22T12:23:46.234Z,10.05
2023-02-22T12:26:27.501Z,10.32
2023-02-22T12:29:26.135Z,11.13
2023-02-22T12:32:00.539Z,10.80
2023-02-22T12:34:46.060Z,10.75
2023-02-22T12:37:22.140Z,9.18
2023-02-22T12:40:13.686Z,9.55
2023-02-22T12:42:55.705Z,9.63
2023-02-22T12:45:44.844Z,9.93
2023-02-22T12:48:31.547Z,9.65
2023-02-22T12:51:43.284Z,9.40
2023-02-22T12:54:22.294Z,10.75
2023-02-22T12:56:59.107Z,9.38
2023-02-22T12:59:29.822Z,10.60
2023-02-22T13:02:31.161Z,11.10
2023-02-22T13:04:57.995Z,10.05
2023-02-22T13:08:13.714Z,10.75
2023-02-22T13:11:02.795Z,10.48
2023-02-22T13:14:01.025Z,10.55
2023-02-22T13:16:42.658Z,9.18
2023-02-22T13:19:15.211Z,10.65
2023-02-22T13:21:53.326Z,10.98
2023-02-22T13:24:26.517Z,10.65
2023-02-22T13:27:06.379Z,10.87
2023-02-22T13:29:46.429Z,10.65
2023-02-22T13:32:28.152Z,11.48
2023-02-22T13:35:29.778Z,11.57
2023-02-22T13:38:24.104Z,10.38
2023-02-22T13:41:16.985Z,11.07
2023-02-22T13:43:58.792Z,11.95
2023-02-22T13:47:10.403Z,10.95
2023-02-22T13:50:20.210Z,11.65
2023-02-22T13:52:48.915Z,11.35
2023-02-22T13:55:27.481Z,12.02
2023-02-22T13:58:06.342Z,10.93
2023-02-22T14:00:57.256Z,11.38
2023-02-22T14:03:43.115Z,11.02
2023-02-22T14:06:31.725Z,12.65
2023-02-22T14:08:58.619Z,12.23
2023-02-22T14:11:34.250Z,12.27
2023-02-22T14:14:01.084Z,12.73
2023-02-22T14:16:32.037Z,12.57
2023-02-22T14:19:14.517Z,11.77
2023-02-22T14:22:06.657Z,11.63
2023-02-22T14:24:46.947Z,11.75
2023-02-22T14:27:15.163Z,12.15
2023-02-22T14:29:57.155Z,10.65
2023-02-22T14:32:35.256Z,10.65
2023-02-22T14:35:26.576Z,11.63
2023-02-22T14:38:01.712Z,12.73
2023-02-22T14:40:31.300Z,13.82
2023-02-22T14:43:10.517Z,12.80
2023-02-22T14:45:56.613Z,13.85
2023-02-22T14:48:46.707Z,14.23
2023-02-22T14:51:26.592Z,13.45
2023-02-22T14:54:04.121Z,12.13
2023-02-22T14:56:47.531Z,14.02
2023-02-22T14:59:21.662Z,13.15
